Home > Products > Valid Products > TAF

000
FTUS42 KTAE 210500
TAFABY
TAF
KABY 210521Z 2106/2206 00000KT P6SM SKC
     FM211500 35006KT P6SM SKC=



000
FTUS42 KTAE 210500
TAFTLH
TAF
KTLH 210521Z 2106/2206 00000KT P6SM SCT050
     FM211500 35006KT P6SM SKC
     FM220000 00000KT P6SM SKC=



000
FTUS42 KTAE 210500
TAFDHN
TAF
KDHN 210521Z 2106/2206 35004KT P6SM SKC=



000
FTUS42 KTAE 210500
TAFVLD
TAF
KVLD 210521Z 2106/2206 00000KT P6SM SCT050
      TEMPO 2108/2112 5SM BR
     FM211600 35004KT P6SM SKC=



000
FTUS42 KTAE 202300
TAFVLD
TAF
KVLD 202336Z 2100/2124 00000KT P6SM BKN250
      TEMPO 2110/2112 5SM BR
     FM211600 35004KT P6SM SCT250=



000
FTUS42 KTAE 202300
TAFABY
TAF
KABY 202336Z 2100/2124 00000KT P6SM SCT250
     FM211600 34005KT P6SM SCT250=



000
FTUS42 KTAE 202300
TAFDHN
TAF
KDHN 202336Z 2100/2124 31005KT P6SM SCT250=



000
FTUS42 KTAE 202300
TAFTLH
TAF
KTLH 202336Z 2100/2124 17003KT P6SM FEW045 BKN250
     FM210300 00000KT P6SM BKN250
     FM211800 34005KT P6SM SCT050 SCT250=



000
FTUS42 KTAE 201700
TAFABY
TAF
KABY 201721Z 2018/2118 VRB04KT P6SM SCT040 SCT250=



000
FTUS42 KTAE 201700
TAFTLH
TAF
KTLH 201721Z 2018/2118 18005KT P6SM SCT045 SCT250=



000
FTUS42 KTAE 201700
TAFDHN
TAF
KDHN 201721Z 2018/2118 VRB03KT P6SM SCT040 SCT250=



000
FTUS42 KTAE 201700
TAFVLD
TAF
KVLD 201721Z 2018/2118 16006KT P6SM SCT040 SCT250
     FM210000 00000KT P6SM FEW250
      TEMPO 2109/2113 4SM BR=



000
FTUS42 KTAE 201100
TAFTLH
TAF
KTLH 201128Z 2012/2112 00000KT P6SM BKN040
     FM201400 13004KT P6SM SCT040 SCT250
     FM202000 18005KT P6SM SCT050 SCT250=



000
FTUS42 KTAE 201100
TAFABY
TAF
KABY 201128Z 2012/2112 00000KT 5SM BR SKC
     FM201400 13004KT P6SM FEW030
     FM202000 25004KT P6SM FEW040 FEW250=



000
FTUS42 KTAE 201100
TAFVLD
TAF
KVLD 201128Z 2012/2112 00000KT P6SM BKN040
     FM201400 12004KT P6SM SCT040
     FM201900 18004KT P6SM SCT050 SCT250=



000
FTUS42 KTAE 201100
TAFDHN
TAF
KDHN 201128Z 2012/2112 00000KT 5SM BR SKC
     FM201300 10003KT P6SM FEW250
     FM201800 27004KT P6SM FEW040 SCT250=



000
FTUS42 KTAE 200500
TAFTLH
TAF
KTLH 200523Z 2006/2106 00000KT P6SM SKC
     FM201400 13004KT P6SM SCT030 SCT250
     FM202000 18005KT P6SM SCT040 SCT250=



000
FTUS42 KTAE 200500
TAFABY
TAF
KABY 200523Z 2006/2106 00000KT P6SM SKC
     FM201000 00000KT 5SM BR SKC
     FM201400 13004KT P6SM FEW030
     FM202000 25004KT P6SM FEW040 FEW250=



000
FTUS42 KTAE 200500
TAFDHN
TAF
KDHN 200523Z 2006/2106 00000KT P6SM SKC
     FM201000 00000KT 5SM BR SKC
     FM201300 10003KT P6SM FEW250
     FM201800 27004KT P6SM FEW040 SCT250=



000
FTUS42 KTAE 200500
TAFVLD
TAF
KVLD 200523Z 2006/2106 00000KT P6SM SKC
     FM201000 00000KT 6SM BR SKC
     FM201400 12004KT P6SM SCT030
     FM201900 18004KT P6SM SCT040 SCT250=



000
FTUS42 KTAE 192300
TAFVLD
TAF
KVLD 192322Z 2000/2024 00000KT P6SM SKC
     FM201000 00000KT 6SM BR FEW250
     FM201400 09005KT P6SM SCT250
     FM202300 00000KT P6SM SCT100 SCT250=



000
FTUS42 KTAE 192300
TAFDHN
TAF
KDHN 192322Z 2000/2024 VRB03KT P6SM SKC
     FM202000 09004KT P6SM SCT250=



000
FTUS42 KTAE 192300
TAFTLH
TAF
KTLH 192322Z 2000/2024 10004KT P6SM FEW150
     FM200200 00000KT P6SM SKC
     FM201400 10004KT P6SM SCT250
     FM202300 19003KT P6SM FEW050 SCT250=



000
FTUS42 KTAE 192300
TAFABY
TAF
KABY 192322Z 2000/2024 00000KT P6SM SKC
     FM201400 09004KT P6SM SKC
     FM201900 23004KT P6SM SCT250=



000
FTUS42 KTAE 192300
TAFVLD
TAF
KVLD 192322Z 2000/2024 00000KT P6SM SKC
     FM201000 00000KT 6SM BR FEW250
     FM201400 09005KT P6SM SCT250
     FM202300 00000KT P6SM SCT100 SCT250=



000
FTUS42 KTAE 192300
TAFABY
TAF
KABY 192322Z 2000/2024 00000KT P6SM SKC
     FM201400 09004KT P6SM SKC
     FM201900 23004KT P6SM SCT250=



000
FTUS42 KTAE 192300
TAFTLH
TAF
KTLH 192322Z 2000/2024 10004KT P6SM FEW150
     FM200200 00000KT P6SM SKC
     FM201400 10004KT P6SM SCT250
     FM202300 19003KT P6SM FEW050 SCT250=



000
FTUS42 KTAE 192300
TAFDHN
TAF
KDHN 192322Z 2000/2024 VRB03KT P6SM SKC
     FM202000 09004KT P6SM SCT250=



000
FTUS42 KTAE 191700
TAFABY
TAF
KABY 191720Z 1918/2018 11008KT P6SM SKC
     FM200000 00000KT P6SM FEW250
     FM201400 09004KT P6SM SKC=



000
FTUS42 KTAE 191700
TAFDHN
TAF
KDHN 191720Z 1918/2018 08006KT P6SM SKC=



000
FTUS42 KTAE 191700
TAFVLD
TAF
KVLD 191720Z 1918/2018 05003KT P6SM SKC
     FM201400 09005KT P6SM SCT250=



000
FTUS42 KTAE 191700
TAFTLH
TAF
KTLH 191720Z 1918/2018 09010KT P6SM FEW250
     FM200000 05003KT P6SM FEW250
     FM201400 10004KT P6SM SCT250=



000
FTUS42 KTAE 191100
TAFDHN
TAF
KDHN 191120Z 1912/2012 01005KT P6SM SCT250
     FM191500 05008KT P6SM FEW250
     FM200000 08003KT P6SM FEW250=



000
FTUS42 KTAE 191100
TAFABY
TAF
KABY 191120Z 1912/2012 36005KT P6SM SCT250
     FM191500 06007KT P6SM FEW250
     FM200000 07003KT P6SM FEW250=



000
FTUS42 KTAE 191100
TAFTLH
TAF
KTLH 191120Z 1912/2012 35004KT P6SM SCT250
     FM191500 05007KT P6SM FEW250
     FM200000 05003KT P6SM FEW250=



000
FTUS42 KTAE 191100
TAFVLD
TAF
KVLD 191120Z 1912/2012 01006KT P6SM SCT250
     FM191500 06009KT P6SM FEW250
     FM200000 08003KT P6SM FEW250=



000
FTUS42 KTAE 190500
TAFVLD
TAF
KVLD 190531Z 1906/2006 36007KT P6SM SCT250
     FM191500 06009KT P6SM FEW250
     FM200000 08003KT P6SM FEW250=



000
FTUS42 KTAE 190500
TAFABY
TAF
KABY 190531Z 1906/2006 35005KT P6SM SCT250
     FM191500 06007KT P6SM FEW250
     FM200000 07003KT P6SM FEW250=



000
FTUS42 KTAE 190500
TAFDHN
TAF
KDHN 190531Z 1906/2006 35004KT P6SM SCT250
     FM191500 05008KT P6SM FEW250
     FM200000 08003KT P6SM FEW250=



000
FTUS42 KTAE 190500
TAFTLH
TAF
KTLH 190531Z 1906/2006 35006KT P6SM SCT250
     FM191500 05007KT P6SM FEW250
     FM200000 05003KT P6SM FEW250=



000
FTUS42 KTAE 182300
TAFABY
TAF
KABY 182320Z 1900/1924 35004KT P6SM SKC
     FM191400 06007KT P6SM SKC=



000
FTUS42 KTAE 182300
TAFTLH
TAF
KTLH 182320Z 1900/1924 VRB03KT P6SM SKC
     FM190400 35004KT P6SM SKC
     FM191400 05007KT P6SM SKC=



000
FTUS42 KTAE 182300
TAFDHN
TAF
KDHN 182320Z 1900/1924 35005KT P6SM SKC
     FM191400 05007KT P6SM SKC=



000
FTUS42 KTAE 182300
TAFVLD
TAF
KVLD 182320Z 1900/1924 00000KT P6SM SKC
     FM191400 05008KT P6SM SKC=



000
FTUS42 KTAE 181700
TAFDHN
TAF
KDHN 181720Z 1818/1918 30007KT P6SM FEW040 SCT250
     FM190300 36005KT P6SM SKC
     FM191400 05007KT P6SM SKC=



000
FTUS42 KTAE 181700
TAFVLD
TAF
KVLD 181720Z 1818/1918 26006KT P6SM SKC
     FM190300 36003KT P6SM SKC
     FM191400 05008KT P6SM SKC=



000
FTUS42 KTAE 181700
TAFABY
TAF
KABY 181720Z 1818/1918 29007KT P6SM FEW040 SCT250
     FM190300 35004KT P6SM SKC
     FM191400 06007KT P6SM SKC=



000
FTUS42 KTAE 181700
TAFTLH
TAF
KTLH 181720Z 1818/1918 28007KT P6SM SCT050 SCT250
     FM190400 35004KT P6SM SKC
     FM191400 05007KT P6SM SKC=



000
FTUS42 KTAE 181100
TAFTLH
TAF
KTLH 181121Z 1812/1912 00000KT P6SM SKC
     FM181500 29007KT P6SM FEW250
     FM190300 31005KT P6SM FEW250=



000
FTUS42 KTAE 181100
TAFABY
TAF
KABY 181121Z 1812/1912 00000KT P6SM SKC
     FM181500 29008KT P6SM FEW250
     FM190300 34005KT P6SM FEW250=



000
FTUS42 KTAE 181100
TAFVLD
TAF
KVLD 181121Z 1812/1912 00000KT 6SM BR SKC
      TEMPO 1812/1813 4SM BR
     FM181400 28007KT P6SM FEW250
     FM190300 34003KT P6SM FEW250=



000
FTUS42 KTAE 181100
TAFDHN
TAF
KDHN 181121Z 1812/1912 00000KT P6SM FEW250
     FM181500 30008KT P6SM FEW250
     FM190300 34006KT P6SM FEW250=



000
FTUS42 KTAE 181100
TAFTLH
TAF
KTLH 181121Z 1812/1912 00000KT P6SM SKC
     FM181500 29007KT P6SM FEW250
     FM190300 31005KT P6SM FEW250=



000
FTUS42 KTAE 181100
TAFABY
TAF
KABY 181121Z 1812/1912 00000KT P6SM SKC
     FM181500 29008KT P6SM FEW250
     FM190300 34005KT P6SM FEW250=



000
FTUS42 KTAE 181100
TAFDHN
TAF
KDHN 181121Z 1812/1912 00000KT P6SM FEW250
     FM181500 30008KT P6SM FEW250
     FM190300 34006KT P6SM FEW250=



000
FTUS42 KTAE 181100
TAFVLD
TAF
KVLD 181121Z 1812/1912 00000KT 6SM BR SKC
      TEMPO 1812/1813 4SM BR
     FM181400 28007KT P6SM FEW250
     FM190300 34003KT P6SM FEW250=



000
FTUS42 KTAE 180900 AAA
TAFVLD
TAF AMD
KVLD 180919Z 1809/1906 00000KT P6SM SKC
      TEMPO 1809/1813 3SM BR
     FM181500 28007KT P6SM FEW250
     FM190300 34003KT P6SM FEW250=



    US Dept of Commerce
    National Oceanic and Atmospheric Administration
    National Weather Service
    1325 East West Highway
    Silver Spring, MD 20910
    Page Author: NWS Internet Services Team
Disclaimer
Information Quality
Credits
Glossary
Privacy Policy
Freedom of Information Act (FOIA)
About Us
Career Opportunities